createdAt,value
2022-08-26T00:01:57.497Z,15.70
2022-08-26T00:04:30.350Z,15.10
2022-08-26T00:07:02.190Z,16.10
2022-08-26T00:09:37.344Z,17.40
2022-08-26T00:12:12.246Z,16.20
2022-08-26T00:14:44.668Z,17.50
2022-08-26T00:17:16.412Z,17.30
2022-08-26T00:19:48.038Z,16.20
2022-08-26T00:22:21.478Z,18.70
2022-08-26T00:24:53.545Z,15.60
2022-08-26T00:27:25.318Z,15.30
2022-08-26T00:29:57.919Z,15.50
2022-08-26T00:32:29.621Z,16.90
2022-08-26T00:35:01.308Z,18.00
2022-08-26T00:37:33.702Z,16.70
2022-08-26T00:40:11.952Z,16.50
2022-08-26T00:42:46.264Z,17.20
2022-08-26T00:45:19.644Z,18.20
2022-08-26T00:47:54.210Z,16.70
2022-08-26T00:50:30.672Z,17.40
2022-08-26T00:53:21.437Z,17.50
2022-08-26T00:56:04.797Z,16.50
2022-08-26T00:58:42.926Z,18.10
2022-08-26T01:01:15.819Z,17.30
2022-08-26T01:03:48.363Z,18.40
2022-08-26T01:06:20.716Z,18.90
2022-08-26T01:08:53.298Z,16.90
2022-08-26T01:11:25.675Z,20.30
2022-08-26T01:14:02.045Z,17.80
2022-08-26T01:16:35.439Z,19.70
2022-08-26T01:21:47.856Z,18.80
2022-08-26T01:24:20.270Z,18.60
2022-08-26T01:26:53.527Z,18.80
2022-08-26T01:29:26.193Z,22.20
2022-08-26T01:34:32.055Z,18.10
2022-08-26T01:37:10.173Z,19.70
2022-08-26T01:39:51.134Z,20.70
2022-08-26T01:42:25.864Z,20.10
2022-08-26T01:45:02.010Z,18.30
2022-08-26T01:47:37.487Z,20.80
2022-08-26T01:50:15.801Z,20.90
2022-08-26T01:53:02.389Z,18.80
2022-08-26T01:55:35.427Z,24.00
2022-08-26T01:58:23.745Z,20.60
2022-08-26T02:00:55.391Z,21.30
2022-08-26T02:03:28.267Z,21.20
2022-08-26T02:06:03.869Z,24.20
2022-08-26T02:08:39.988Z,22.30
2022-08-26T02:11:12.531Z,22.10
2022-08-26T02:13:46.116Z,23.90
2022-08-26T02:16:21.419Z,23.90
2022-08-26T02:18:54.825Z,23.20
2022-08-26T02:21:26.898Z,21.60
2022-08-26T02:24:08.459Z,22.20
2022-08-26T02:26:41.825Z,23.60
2022-08-26T02:29:21.413Z,20.70
2022-08-26T02:31:55.784Z,23.60
2022-08-26T02:34:31.914Z,21.70
2022-08-26T02:37:06.415Z,21.60
2022-08-26T02:39:41.012Z,22.70
2022-08-26T02:42:13.105Z,22.90
2022-08-26T02:44:45.393Z,23.70
2022-08-26T02:47:18.231Z,22.30
2022-08-26T02:49:50.132Z,24.40
2022-08-26T02:52:22.080Z,24.10
2022-08-26T02:54:54.257Z,24.70
2022-08-26T02:57:26.957Z,25.60
2022-08-26T02:59:59.102Z,25.40
2022-08-26T03:02:32.049Z,25.70
2022-08-26T03:05:04.717Z,25.30
2022-08-26T03:07:36.413Z,26.20
2022-08-26T03:12:41.399Z,28.70
2022-08-26T03:15:17.831Z,29.90
2022-08-26T03:17:50.679Z,29.40
2022-08-26T03:22:53.371Z,28.30
2022-08-26T03:25:28.181Z,28.80
2022-08-26T03:28:00.211Z,30.50
2022-08-26T03:30:45.444Z,29.10
2022-08-26T03:33:19.102Z,29.40
2022-08-26T03:35:52.163Z,28.90
2022-08-26T03:38:26.166Z,29.00
2022-08-26T03:40:58.320Z,29.60
2022-08-26T03:43:30.126Z,28.10
2022-08-26T03:46:05.408Z,28.70
2022-08-26T03:48:37.558Z,30.10
2022-08-26T03:51:18.161Z,28.70
2022-08-26T03:53:50.441Z,28.70
2022-08-26T03:56:22.350Z,28.40
2022-08-26T03:58:54.770Z,28.40
2022-08-26T04:01:26.496Z,26.60
2022-08-26T04:04:00.100Z,27.30
2022-08-26T04:06:36.164Z,27.10
2022-08-26T04:09:11.032Z,27.80
2022-08-26T04:11:44.724Z,27.40
2022-08-26T04:14:20.244Z,26.70
2022-08-26T04:16:53.572Z,27.40
2022-08-26T04:19:27.695Z,27.60
2022-08-26T04:21:59.654Z,26.20
2022-08-26T04:24:33.014Z,25.40
2022-08-26T04:27:05.034Z,27.00
2022-08-26T04:29:41.594Z,26.20
2022-08-26T04:32:13.588Z,26.50
2022-08-26T04:34:45.513Z,27.80
2022-08-26T04:37:18.425Z,28.50
2022-08-26T04:39:54.037Z,26.00
2022-08-26T04:42:26.345Z,26.60
2022-08-26T04:44:58.864Z,25.60
2022-08-26T04:47:32.471Z,26.10
2022-08-26T04:50:04.889Z,24.90
2022-08-26T04:52:39.390Z,26.40
2022-08-26T04:55:12.341Z,24.80
2022-08-26T04:57:45.745Z,26.50
2022-08-26T05:00:18.588Z,25.70
2022-08-26T05:02:51.481Z,26.00
2022-08-26T05:05:23.444Z,26.90
2022-08-26T05:07:55.276Z,25.70
2022-08-26T05:10:27.721Z,26.10
2022-08-26T05:15:32.338Z,27.10
2022-08-26T05:18:04.809Z,26.70
2022-08-26T05:20:42.059Z,27.00
2022-08-26T05:23:14.400Z,25.40
2022-08-26T05:28:19.780Z,24.50
2022-08-26T05:30:52.441Z,25.70
2022-08-26T05:35:54.877Z,25.30
2022-08-26T05:38:30.305Z,25.70
2022-08-26T05:41:02.372Z,25.40
2022-08-26T05:43:35.268Z,25.20
2022-08-26T05:46:10.008Z,26.10
2022-08-26T05:48:44.275Z,23.30
2022-08-26T05:51:16.272Z,24.10
2022-08-26T05:53:54.557Z,24.50
2022-08-26T05:56:27.906Z,24.60
2022-08-26T05:59:02.682Z,23.90
2022-08-26T06:01:36.696Z,22.80
2022-08-26T06:04:09.122Z,24.40
2022-08-26T06:06:41.629Z,23.60
2022-08-26T06:09:15.053Z,24.50
2022-08-26T06:11:50.029Z,23.00
2022-08-26T06:14:21.693Z,23.20
2022-08-26T06:16:53.604Z,22.10
2022-08-26T06:19:25.706Z,22.50
2022-08-26T06:22:24.937Z,20.30
2022-08-26T06:25:15.507Z,21.70
2022-08-26T06:27:48.861Z,20.90
2022-08-26T06:30:21.136Z,20.40
2022-08-26T06:32:54.348Z,20.10
2022-08-26T06:35:26.928Z,19.00
2022-08-26T06:37:58.808Z,19.90
2022-08-26T06:40:31.162Z,19.10
2022-08-26T06:43:02.895Z,18.00
2022-08-26T06:45:34.756Z,21.80
2022-08-26T06:48:08.570Z,18.90
2022-08-26T06:50:42.053Z,19.10
2022-08-26T06:53:15.388Z,18.00
2022-08-26T06:55:48.321Z,17.40
2022-08-26T06:58:23.565Z,17.30
2022-08-26T07:01:01.985Z,18.50
2022-08-26T07:03:39.480Z,17.30
2022-08-26T07:06:12.043Z,17.50
2022-08-26T07:08:43.989Z,17.40
2022-08-26T07:11:16.036Z,17.00
2022-08-26T07:13:48.889Z,19.40
2022-08-26T07:16:21.908Z,18.50
2022-08-26T07:18:56.145Z,18.00
2022-08-26T07:21:29.598Z,17.20
2022-08-26T07:24:01.783Z,16.40
2022-08-26T07:26:33.750Z,17.30
2022-08-26T07:29:06.853Z,17.60
2022-08-26T07:31:43.012Z,15.90
2022-08-26T07:34:14.998Z,17.00
2022-08-26T07:36:46.708Z,17.10
2022-08-26T07:39:20.924Z,16.80
2022-08-26T07:41:52.657Z,17.30
2022-08-26T07:44:24.623Z,17.30
2022-08-26T07:46:56.556Z,17.80
2022-08-26T07:49:29.655Z,16.90
2022-08-26T07:52:02.373Z,16.20
2022-08-26T07:57:05.084Z,15.60
2022-08-26T07:59:40.255Z,16.00
2022-08-26T08:02:12.112Z,16.10
2022-08-26T08:04:43.829Z,16.20
2022-08-26T08:07:16.346Z,14.20
2022-08-26T08:09:49.534Z,15.80
2022-08-26T08:12:21.796Z,14.40
2022-08-26T08:14:53.604Z,14.10
2022-08-26T08:17:25.362Z,16.10
2022-08-26T08:19:57.140Z,16.40
2022-08-26T08:25:00.104Z,15.60
2022-08-26T08:27:37.940Z,14.90
2022-08-26T08:30:13.722Z,14.50
2022-08-26T08:32:46.273Z,15.70
2022-08-26T08:35:21.123Z,15.00
2022-08-26T08:37:54.801Z,13.80
2022-08-26T08:40:29.248Z,13.50
2022-08-26T08:43:06.466Z,13.60
2022-08-26T08:45:43.444Z,13.60
2022-08-26T08:48:27.331Z,13.90
2022-08-26T08:51:08.572Z,13.30
2022-08-26T08:53:43.530Z,12.90
2022-08-26T08:56:25.487Z,12.50
2022-08-26T08:59:14.019Z,12.90
2022-08-26T09:01:56.560Z,12.90
2022-08-26T09:05:15.126Z,13.10
2022-08-26T09:07:50.304Z,13.30
2022-08-26T09:10:35.501Z,10.90
2022-08-26T09:13:16.354Z,11.30
2022-08-26T09:15:57.659Z,11.20
2022-08-26T09:18:46.133Z,10.90
2022-08-26T09:21:21.086Z,11.20
2022-08-26T09:23:57.032Z,10.50
2022-08-26T09:26:31.286Z,11.30
2022-08-26T09:29:05.261Z,11.20
2022-08-26T09:31:39.069Z,11.90
2022-08-26T09:34:19.137Z,11.00
2022-08-26T09:36:53.658Z,10.00
2022-08-26T09:39:37.897Z,11.30
2022-08-26T09:42:14.309Z,10.70
2022-08-26T09:45:00.473Z,9.10
2022-08-26T09:47:34.937Z,8.00
2022-08-26T09:50:13.216Z,9.00
2022-08-26T09:52:45.078Z,8.40
2022-08-26T09:55:23.097Z,8.50
2022-08-26T09:57:58.208Z,8.30
2022-08-26T10:00:35.050Z,9.00
2022-08-26T10:03:23.396Z,7.70
2022-08-26T10:06:01.146Z,8.10
2022-08-26T10:08:37.103Z,7.60
2022-08-26T10:11:18.836Z,8.30
2022-08-26T10:13:55.812Z,10.00
2022-08-26T10:16:33.272Z,8.70
2022-08-26T10:19:13.855Z,8.20
2022-08-26T10:21:54.890Z,8.20
2022-08-26T10:24:32.896Z,8.60
2022-08-26T10:27:23.908Z,8.80
2022-08-26T10:30:05.020Z,7.70
2022-08-26T10:32:41.863Z,7.60
2022-08-26T10:35:16.918Z,7.40
2022-08-26T10:37:53.567Z,7.00
2022-08-26T10:40:29.394Z,7.20
2022-08-26T10:43:11.414Z,8.60
2022-08-26T10:45:48.973Z,6.90
2022-08-26T10:48:35.561Z,6.90
2022-08-26T10:51:09.260Z,6.20
2022-08-26T10:53:51.406Z,6.60
2022-08-26T10:56:41.231Z,6.60
2022-08-26T10:59:24.665Z,6.60
2022-08-26T11:02:08.756Z,6.30
2022-08-26T11:04:49.522Z,6.80
2022-08-26T11:07:43.840Z,5.90
2022-08-26T11:11:04.728Z,6.70
2022-08-26T11:14:02.726Z,5.60
2022-08-26T11:16:43.232Z,5.70
2022-08-26T11:20:00.826Z,5.90
2022-08-26T11:22:38.039Z,6.60
2022-08-26T11:25:19.889Z,6.20
2022-08-26T11:28:00.755Z,7.00
2022-08-26T11:30:57.774Z,6.00
2022-08-26T11:33:51.195Z,6.40
2022-08-26T11:36:56.484Z,6.40
2022-08-26T11:39:36.814Z,6.90
2022-08-26T11:42:27.803Z,6.40
2022-08-26T11:45:04.719Z,5.60
2022-08-26T11:47:37.701Z,6.40
2022-08-26T11:50:12.678Z,7.20
2022-08-26T11:52:53.709Z,7.50
2022-08-26T11:55:25.595Z,7.20
2022-08-26T11:58:00.900Z,6.10
2022-08-26T12:00:40.192Z,6.60
2022-08-26T12:03:22.916Z,6.20
2022-08-26T12:05:57.211Z,6.80
2022-08-26T12:08:34.431Z,6.60
2022-08-26T12:11:10.060Z,7.20
2022-08-26T12:13:42.748Z,6.50
2022-08-26T12:16:26.523Z,6.20
2022-08-26T12:18:58.837Z,5.90
2022-08-26T12:21:34.814Z,6.40
2022-08-26T12:24:07.535Z,6.90
2022-08-26T12:26:40.497Z,6.30
2022-08-26T12:29:26.868Z,6.30
2022-08-26T12:32:13.530Z,6.10
2022-08-26T12:34:49.014Z,6.50
2022-08-26T12:37:21.117Z,5.70
2022-08-26T12:39:52.927Z,5.70
2022-08-26T12:42:43.079Z,6.40
2022-08-26T12:45:27.250Z,6.20
2022-08-26T12:48:02.334Z,5.30
2022-08-26T12:50:37.129Z,6.30
2022-08-26T12:53:21.085Z,6.30
2022-08-26T12:55:56.163Z,5.90
2022-08-26T12:58:31.677Z,6.00
2022-08-26T13:01:23.610Z,5.60
2022-08-26T13:06:31.400Z,5.30
2022-08-26T13:09:06.333Z,6.80
2022-08-26T13:12:02.161Z,5.40
2022-08-26T13:14:34.365Z,6.80
2022-08-26T13:17:06.445Z,5.40
2022-08-26T13:19:38.249Z,5.70
2022-08-26T13:22:12.969Z,5.80
2022-08-26T13:24:46.147Z,4.90
2022-08-26T13:27:20.566Z,5.10
2022-08-26T13:29:53.029Z,5.70
2022-08-26T13:32:27.283Z,5.10
2022-08-26T13:35:00.467Z,6.00
2022-08-26T13:37:37.458Z,5.70
2022-08-26T13:40:11.291Z,6.70
2022-08-26T13:42:49.900Z,5.50
2022-08-26T13:45:22.020Z,6.60
2022-08-26T13:47:53.821Z,6.60
2022-08-26T13:50:25.533Z,5.50
2022-08-26T13:52:57.370Z,5.60
2022-08-26T13:55:29.530Z,5.20
2022-08-26T14:00:32.350Z,6.00
2022-08-26T14:03:04.596Z,5.70
2022-08-26T14:05:36.476Z,4.90
2022-08-26T14:08:08.725Z,6.00
2022-08-26T14:13:10.923Z,4.80
2022-08-26T14:15:43.072Z,5.30
2022-08-26T14:20:51.470Z,4.80
2022-08-26T14:23:23.452Z,5.60
2022-08-26T14:31:03.666Z,5.20
2022-08-26T14:33:38.214Z,5.30
2022-08-26T14:36:29.048Z,5.40
2022-08-26T14:39:04.259Z,5.30
2022-08-26T14:41:39.416Z,6.90
2022-08-26T14:44:16.224Z,5.60
2022-08-26T14:46:50.532Z,5.30
2022-08-26T14:49:24.155Z,4.60
2022-08-26T14:51:56.431Z,4.70
2022-08-26T14:57:01.382Z,4.90
2022-08-26T14:59:35.667Z,4.70
2022-08-26T15:02:08.997Z,5.20
2022-08-26T15:04:45.513Z,4.80
2022-08-26T15:07:17.313Z,5.10
2022-08-26T15:09:49.185Z,4.80
2022-08-26T15:12:21.171Z,5.10
2022-08-26T15:14:53.010Z,5.80
2022-08-26T15:17:24.948Z,5.20
2022-08-26T15:19:56.768Z,5.20
2022-08-26T15:22:29.844Z,5.40
2022-08-26T15:25:02.231Z,5.50
2022-08-26T15:27:34.499Z,5.80
2022-08-26T15:30:07.969Z,5.00
2022-08-26T15:32:40.520Z,5.90
2022-08-26T15:35:12.661Z,4.90
2022-08-26T15:37:44.506Z,5.40
2022-08-26T15:40:18.403Z,4.60
2022-08-26T15:43:01.219Z,5.40
2022-08-26T15:45:43.380Z,5.50
2022-08-26T15:48:16.269Z,5.60
2022-08-26T15:50:54.107Z,6.10
2022-08-26T15:53:26.899Z,7.60
2022-08-26T15:55:59.772Z,6.60
2022-08-26T15:58:31.838Z,7.10
2022-08-26T16:01:04.485Z,6.00
2022-08-26T16:03:36.767Z,5.70
2022-08-26T16:08:39.910Z,6.30
2022-08-26T16:11:11.960Z,6.60
2022-08-26T16:16:14.644Z,6.40
2022-08-26T16:18:46.977Z,6.00
2022-08-26T16:21:20.668Z,5.70
2022-08-26T16:23:53.339Z,6.20
2022-08-26T16:26:28.177Z,5.50
2022-08-26T16:29:00.033Z,6.10
2022-08-26T16:31:32.233Z,5.90
2022-08-26T16:34:04.103Z,5.80
2022-08-26T16:36:37.022Z,5.80
2022-08-26T16:39:10.597Z,6.50
2022-08-26T16:41:42.440Z,5.50
2022-08-26T16:44:14.554Z,5.40
2022-08-26T16:46:47.153Z,6.10
2022-08-26T16:49:19.117Z,5.30
2022-08-26T16:51:50.864Z,7.30
2022-08-26T16:54:22.614Z,6.50
2022-08-26T16:56:54.387Z,5.90
2022-08-26T16:59:26.228Z,5.10
2022-08-26T17:01:58.243Z,5.90
2022-08-26T17:07:00.658Z,5.20
2022-08-26T17:09:32.947Z,5.00
2022-08-26T17:14:34.973Z,5.30
2022-08-26T17:17:07.044Z,6.30
2022-08-26T17:19:46.856Z,6.10
2022-08-26T17:22:19.808Z,5.90
2022-08-26T17:24:51.632Z,5.80
2022-08-26T17:27:23.597Z,5.90
2022-08-26T17:29:55.267Z,5.40
2022-08-26T17:32:27.078Z,5.80
2022-08-26T17:34:59.174Z,5.20
2022-08-26T17:37:30.859Z,6.90
2022-08-26T17:40:03.115Z,6.20
2022-08-26T17:42:37.625Z,5.30
2022-08-26T17:45:11.435Z,5.30
2022-08-26T17:47:44.088Z,5.60
2022-08-26T17:50:18.105Z,5.70
2022-08-26T17:52:50.007Z,5.50
2022-08-26T17:55:22.195Z,5.80
2022-08-26T17:57:54.519Z,5.70
2022-08-26T18:00:28.328Z,5.70
2022-08-26T18:03:01.332Z,6.80
2022-08-26T18:05:33.112Z,5.60
2022-08-26T18:08:05.489Z,6.20
2022-08-26T18:10:37.756Z,6.70
2022-08-26T18:13:09.729Z,6.60
2022-08-26T18:15:45.302Z,5.80
2022-08-26T18:18:17.588Z,5.90
2022-08-26T18:23:33.488Z,15.30
2022-08-26T18:26:05.447Z,6.70
2022-08-26T18:28:37.340Z,7.60
2022-08-26T18:31:14.354Z,5.50
2022-08-26T18:33:46.895Z,6.50
2022-08-26T18:36:22.020Z,5.90
2022-08-26T18:38:54.481Z,6.80
2022-08-26T18:41:29.141Z,7.30
2022-08-26T18:44:01.567Z,6.00
2022-08-26T18:49:05.050Z,5.70
2022-08-26T18:51:37.914Z,6.30
2022-08-26T18:54:11.604Z,6.50
2022-08-26T18:56:43.881Z,6.90
2022-08-26T18:59:17.424Z,7.40
2022-08-26T19:01:50.706Z,6.40
2022-08-26T19:04:23.151Z,9.30
2022-08-26T19:06:57.061Z,7.10
2022-08-26T19:09:31.632Z,6.20
2022-08-26T19:12:05.134Z,6.90
2022-08-26T19:14:37.379Z,5.60
2022-08-26T19:17:09.540Z,6.80
2022-08-26T19:19:41.358Z,6.40
2022-08-26T19:22:13.314Z,6.70
2022-08-26T19:24:45.133Z,6.90
2022-08-26T19:27:17.496Z,6.70
2022-08-26T19:29:49.506Z,6.40
2022-08-26T19:32:24.258Z,6.70
2022-08-26T19:34:56.732Z,6.80
2022-08-26T19:40:01.269Z,7.10
2022-08-26T19:42:33.058Z,6.70
2022-08-26T19:45:24.309Z,6.30
2022-08-26T19:47:58.414Z,6.60
2022-08-26T19:50:32.739Z,8.60
2022-08-26T19:53:05.941Z,7.30
2022-08-26T19:55:38.089Z,6.80
2022-08-26T19:58:11.759Z,7.60
2022-08-26T20:00:43.754Z,7.20
2022-08-26T20:05:49.344Z,7.10
2022-08-26T20:08:22.565Z,7.80
2022-08-26T20:10:55.142Z,7.30
2022-08-26T20:13:26.915Z,7.20
2022-08-26T20:15:59.117Z,7.70
2022-08-26T20:18:45.177Z,7.80
2022-08-26T20:21:29.405Z,7.70
2022-08-26T20:24:04.047Z,8.10
2022-08-26T20:26:38.188Z,7.60
2022-08-26T20:29:12.101Z,7.30
2022-08-26T20:31:45.148Z,7.80
2022-08-26T20:34:19.708Z,7.70
2022-08-26T20:36:52.346Z,8.10
2022-08-26T20:41:55.691Z,8.00
2022-08-26T20:44:28.924Z,8.20
2022-08-26T20:47:00.786Z,8.90
2022-08-26T20:49:33.204Z,8.20
2022-08-26T20:52:07.321Z,7.90
2022-08-26T20:54:39.129Z,8.50
2022-08-26T20:57:11.073Z,7.90
2022-08-26T20:59:43.613Z,8.30
2022-08-26T21:04:45.766Z,8.00
2022-08-26T21:07:17.738Z,7.90
2022-08-26T21:09:49.647Z,8.20
2022-08-26T21:12:23.619Z,7.60
2022-08-26T21:14:55.460Z,8.10
2022-08-26T21:17:27.455Z,8.50
2022-08-26T21:19:59.310Z,8.70
2022-08-26T21:22:31.674Z,8.30
2022-08-26T21:25:04.258Z,8.50
2022-08-26T21:27:37.427Z,8.00
2022-08-26T21:30:11.996Z,9.40
2022-08-26T21:32:44.436Z,8.80
2022-08-26T21:37:46.614Z,8.50
2022-08-26T21:40:18.776Z,8.80
2022-08-26T21:42:50.864Z,9.90
2022-08-26T21:45:23.050Z,8.70
2022-08-26T21:47:54.909Z,8.70
2022-08-26T21:50:29.535Z,7.90
2022-08-26T21:53:01.254Z,10.00
2022-08-26T21:55:38.606Z,11.10
2022-08-26T21:58:10.977Z,9.60
2022-08-26T22:00:49.512Z,8.80
2022-08-26T22:03:21.400Z,8.90
2022-08-26T22:05:53.784Z,10.00
2022-08-26T22:08:28.035Z,8.60
2022-08-26T22:11:01.310Z,9.50
2022-08-26T22:13:37.709Z,9.30
2022-08-26T22:16:11.398Z,10.20
2022-08-26T22:18:43.850Z,9.70
2022-08-26T22:21:18.412Z,9.80
2022-08-26T22:23:50.380Z,9.60
2022-08-26T22:29:00.084Z,11.50
2022-08-26T22:31:38.362Z,9.20
2022-08-26T22:34:13.236Z,9.10
2022-08-26T22:36:47.070Z,10.30
2022-08-26T22:39:22.688Z,9.40
2022-08-26T22:41:55.260Z,9.60
2022-08-26T22:46:57.359Z,10.10
2022-08-26T22:49:29.745Z,9.50
2022-08-26T22:52:01.674Z,10.40
2022-08-26T22:54:33.503Z,10.00
2022-08-26T22:57:05.573Z,10.20
2022-08-26T22:59:37.514Z,10.10
2022-08-26T23:02:09.304Z,9.90
2022-08-26T23:04:44.375Z,10.40
2022-08-26T23:07:16.485Z,11.30
2022-08-26T23:09:48.340Z,10.10
2022-08-26T23:12:20.119Z,11.00
2022-08-26T23:14:52.186Z,9.30
2022-08-26T23:17:24.050Z,10.30
2022-08-26T23:19:58.200Z,10.60
2022-08-26T23:25:00.402Z,10.20
2022-08-26T23:27:32.344Z,12.20
2022-08-26T23:30:04.527Z,10.60
2022-08-26T23:32:36.485Z,9.90
2022-08-26T23:35:10.813Z,11.10
2022-08-26T23:37:48.125Z,10.60
2022-08-26T23:40:26.341Z,10.60
2022-08-26T23:43:00.611Z,8.70
2022-08-26T23:45:32.976Z,9.90
2022-08-26T23:48:05.269Z,10.40
2022-08-26T23:50:54.981Z,10.20
2022-08-26T23:53:27.076Z,10.60
2022-08-26T23:55:58.858Z,11.00
2022-08-26T23:58:30.749Z,11.30
